Time;durP1;ratioP1;P1;durP2;ratioP2;P2;SDS_P1;SDS_P2;PMS_P1;PMS_P2;Temp;Humidity;BMP_temperature;BMP_pressure;BME280_temperature;BME280_humidity;BME280_pressure;Samples;Min_cycle;Max_cycle;Signal;HPM_P1;HPM_P2
2023/08/09 00:01:06;;;;;;;3.50;2.87;;;;;;;18.76;70.69;100280.21;1609510;89;21054;-64
2023/08/09 00:03:35;;;;;;;5.35;2.70;;;;;;;18.67;70.89;100279.25;1609375;89;21102;-66
2023/08/09 00:06:04;;;;;;;3.70;2.90;;;;;;;18.60;71.30;100279.95;1609405;88;21513;-66
2023/08/09 00:08:34;;;;;;;4.67;2.58;;;;;;;18.57;71.64;100281.00;1609397;89;21055;-66
2023/08/09 00:11:04;;;;;;;4.08;2.58;;;;;;;18.55;71.63;100274.86;1609246;88;21170;-65
2023/08/09 00:13:33;;;;;;;4.05;2.70;;;;;;;18.54;71.75;100277.34;1609232;88;21063;-65
2023/08/09 00:16:03;;;;;;;6.03;2.70;;;;;;;18.52;71.85;100283.14;1609431;88;21062;-65
2023/08/09 00:18:33;;;;;;;3.90;2.67;;;;;;;18.49;71.84;100286.42;1609467;88;21142;-65
2023/08/09 00:21:02;;;;;;;3.85;2.60;;;;;;;18.47;71.93;100291.94;1609494;88;21071;-65
2023/08/09 00:23:32;;;;;;;4.25;2.80;;;;;;;18.45;72.09;100293.58;1609456;88;21087;-65
2023/08/09 00:26:01;;;;;;;4.90;3.00;;;;;;;18.44;72.14;100291.05;1609284;88;21086;-65
2023/08/09 00:28:30;;;;;;;4.10;2.75;;;;;;;18.40;72.08;100297.66;1600296;89;21573;-65
2023/08/09 00:31:00;;;;;;;4.97;2.85;;;;;;;18.38;72.18;100298.45;1609374;89;21054;-64
2023/08/09 00:33:29;;;;;;;4.37;2.80;;;;;;;18.35;72.35;100296.18;1609223;88;21546;-65
2023/08/09 00:35:58;;;;;;;4.45;2.80;;;;;;;18.33;72.59;100299.75;1609491;89;21055;-65
2023/08/09 00:38:28;;;;;;;3.40;2.60;;;;;;;18.32;72.54;100297.52;1609449;89;21471;-65
2023/08/09 00:40:59;;;;;;;4.08;2.87;;;;;;;18.32;72.57;100294.75;1609477;89;21130;-65
2023/08/09 00:43:29;;;;;;;3.95;2.90;;;;;;;18.31;72.54;100300.55;1609222;89;21518;-64
2023/08/09 00:45:59;;;;;;;5.28;2.67;;;;;;;18.26;72.42;100301.84;1609397;88;21114;-64
2023/08/09 00:48:28;;;;;;;4.80;3.08;;;;;;;18.20;72.55;100304.20;1609435;89;21141;-65
2023/08/09 00:50:57;;;;;;;3.72;2.80;;;;;;;18.14;72.92;100303.81;1621408;88;21074;-65
2023/08/09 00:53:26;;;;;;;5.80;2.83;;;;;;;18.12;73.28;100315.16;1609352;89;21066;-65
2023/08/09 00:55:56;;;;;;;6.37;2.72;;;;;;;18.10;73.40;100320.11;1609281;88;21491;-64
2023/08/09 00:58:25;;;;;;;4.53;2.58;;;;;;;18.08;73.37;100318.68;1609281;89;21071;-64
2023/08/09 01:00:55;;;;;;;4.12;3.00;;;;;;;18.06;73.43;100323.93;1609243;88;21107;-65
2023/08/09 01:03:25;;;;;;;3.37;2.60;;;;;;;18.05;73.52;100326.95;1609460;88;21035;-65
2023/08/09 01:06:14;;;;;;;4.67;2.50;;;;;;;18.02;73.56;100323.28;1609459;89;21051;-65
2023/08/09 01:09:08;;;;;;;4.60;2.70;;;;;;;17.97;73.72;100321.80;1609438;88;21067;-65
2023/08/09 01:11:49;;;;;;;4.45;2.67;;;;;;;17.90;74.02;100332.20;1609345;88;21070;-65
2023/08/09 01:14:18;;;;;;;5.53;3.58;;;;;;;17.86;74.23;100333.25;1609296;89;21503;-65
2023/08/09 01:16:49;;;;;;;6.90;4.47;;;;;;;17.85;74.22;100335.72;1609463;89;21091;-65
2023/08/09 01:19:41;;;;;;;7.80;4.62;;;;;;;17.82;74.36;100332.05;1609366;89;21525;-64
2023/08/09 01:22:33;;;;;;;9.35;4.83;;;;;;;17.78;74.48;100337.80;1609298;89;21518;-64
2023/08/09 01:25:06;;;;;;;6.33;3.85;;;;;;;17.73;74.66;100340.47;1609326;88;21502;-64
2023/08/09 01:27:37;;;;;;;5.83;3.40;;;;;;;17.68;74.72;100337.05;1609357;88;21503;-64
2023/08/09 01:30:11;;;;;;;7.85;3.80;;;;;;;17.66;74.77;100342.50;1609274;89;21090;-64
2023/08/09 01:32:40;;;;;;;10.58;4.05;;;;;;;17.64;74.86;100340.52;1609589;89;21099;-65
2023/08/09 01:35:10;;;;;;;5.50;3.30;;;;;;;17.61;74.99;100344.63;1609432;89;21066;-65
2023/08/09 01:37:52;;;;;;;3.92;3.00;;;;;;;17.58;75.08;100347.05;1609458;89;21054;-64
2023/08/09 01:40:22;;;;;;;4.72;2.90;;;;;;;17.49;75.13;100345.71;1609343;89;21530;-65
2023/08/09 01:42:52;;;;;;;7.30;2.95;;;;;;;17.41;75.28;100345.55;1609391;89;21990;-64
2023/08/09 01:45:21;;;;;;;5.53;2.87;;;;;;;17.32;75.70;100343.70;1609256;88;21090;-64
2023/08/09 01:47:50;;;;;;;3.72;2.60;;;;;;;17.29;75.93;100351.11;1609444;89;21070;-65
2023/08/09 01:50:24;;;;;;;4.72;2.67;;;;;;;17.25;76.13;100354.06;1609596;88;21102;-64
2023/08/09 01:52:55;;;;;;;5.70;3.02;;;;;;;17.20;76.31;100353.95;1609540;88;21134;-64
2023/08/09 01:55:25;;;;;;;6.58;3.00;;;;;;;17.17;76.60;100355.81;1609463;88;21106;-64
2023/08/09 01:57:55;;;;;;;3.83;2.80;;;;;;;17.15;76.79;100358.53;1609301;89;21087;-63
2023/08/09 02:00:24;;;;;;;6.15;2.72;;;;;;;17.11;76.99;100360.39;1609565;88;21134;-63
2023/08/09 02:02:54;;;;;;;4.85;2.67;;;;;;;17.15;77.05;100361.30;1609563;89;21099;-64
2023/08/09 02:05:24;;;;;;;4.70;2.60;;;;;;;17.13;77.05;100362.92;1609202;88;21109;-65
2023/08/09 02:07:53;;;;;;;6.25;3.77;;;;;;;17.13;76.97;100367.08;1609349;89;21577;-65
2023/08/09 02:10:22;;;;;;;5.85;3.47;;;;;;;17.09;77.16;100364.49;1609313;89;21062;-66
2023/08/09 02:12:51;;;;;;;4.83;2.52;;;;;;;17.08;77.13;100365.58;1609272;89;21544;-64
2023/08/09 02:15:21;;;;;;;5.12;2.70;;;;;;;17.10;77.06;100374.48;1609201;88;21082;-64
2023/08/09 02:17:52;;;;;;;5.95;2.80;;;;;;;17.14;76.85;100375.69;1609307;88;21119;-66
2023/08/09 02:20:22;;;;;;;6.25;3.05;;;;;;;17.15;76.67;100376.53;1609346;88;21090;-64
2023/08/09 02:22:52;;;;;;;4.75;2.95;;;;;;;17.18;76.48;100374.66;1609375;88;21693;-64
2023/08/09 02:25:22;;;;;;;4.92;2.83;;;;;;;17.19;76.35;100377.73;1609479;88;21062;-64
2023/08/09 02:27:52;;;;;;;4.75;2.77;;;;;;;17.21;76.22;100376.41;1609643;88;21110;-63
2023/08/09 02:30:21;;;;;;;5.17;2.87;;;;;;;17.22;76.17;100382.78;1609432;88;21322;-65
2023/08/09 02:32:51;;;;;;;4.55;2.95;;;;;;;17.21;76.05;100381.94;1609305;89;21485;-64
2023/08/09 02:35:20;;;;;;;6.47;2.70;;;;;;;17.18;75.93;100380.20;1609494;88;21095;-64
2023/08/09 02:37:51;;;;;;;4.55;3.05;;;;;;;17.11;76.08;100384.47;1609325;88;21537;-65
2023/08/09 02:40:20;;;;;;;4.30;2.80;;;;;;;17.09;76.21;100389.41;1609365;89;21059;-64
2023/08/09 02:42:49;;;;;;;5.03;2.58;;;;;;;17.07;76.36;100387.42;1609480;89;21082;-64
2023/08/09 02:45:19;;;;;;;5.05;3.02;;;;;;;17.07;76.46;100398.50;1609464;88;21082;-64
2023/08/09 02:47:49;;;;;;;3.92;2.90;;;;;;;17.05;76.64;100391.81;1609486;89;21106;-64
2023/08/09 02:50:19;;;;;;;4.35;2.60;;;;;;;17.04;76.73;100398.44;1609319;88;21054;-64
2023/08/09 02:52:50;;;;;;;5.70;3.00;;;;;;;16.99;76.73;100399.70;1609502;88;21102;-65
2023/08/09 02:55:19;;;;;;;4.03;2.40;;;;;;;16.93;76.65;100403.42;1609245;88;21090;-65
2023/08/09 02:57:48;;;;;;;7.47;2.90;;;;;;;16.86;77.02;100408.20;1609319;88;21551;-64
2023/08/09 03:00:17;;;;;;;5.42;2.67;;;;;;;16.80;77.17;100409.16;1609329;88;21793;-65
2023/08/09 03:02:49;;;;;;;5.55;2.80;;;;;;;16.75;77.47;100414.02;1609513;88;21094;-63
2023/08/09 03:05:19;;;;;;;6.80;2.52;;;;;;;16.75;77.56;100415.41;1626749;87;21640;-64
2023/08/09 03:07:48;;;;;;;7.42;3.02;;;;;;;16.73;77.77;100416.18;1634533;88;21051;-65
2023/08/09 03:10:17;;;;;;;6.37;3.00;;;;;;;16.70;77.89;100419.42;1634601;88;21086;-65
2023/08/09 03:12:47;;;;;;;4.75;2.87;;;;;;;16.69;78.01;100421.89;1634510;88;21561;-65
2023/08/09 03:15:17;;;;;;;4.42;2.80;;;;;;;16.67;78.09;100418.52;1634518;88;21098;-64
2023/08/09 03:17:47;;;;;;;7.33;3.10;;;;;;;16.63;78.26;100414.50;1634613;88;21058;-64
2023/08/09 03:20:17;;;;;;;5.47;2.60;;;;;;;16.60;78.53;100412.75;1634536;88;21091;-64
2023/08/09 03:22:48;;;;;;;7.10;3.22;;;;;;;16.61;78.63;100416.66;1634616;88;21536;-65
2023/08/09 03:25:18;;;;;;;6.70;3.37;;;;;;;16.59;78.75;100413.83;1634549;88;21465;-63
2023/08/09 03:27:50;;;;;;;6.50;3.20;;;;;;;16.58;78.84;100421.29;1634578;88;21508;-65
2023/08/09 03:30:20;;;;;;;4.67;2.90;;;;;;;16.58;78.86;100428.20;1634598;88;21548;-64
2023/08/09 03:32:49;;;;;;;5.50;2.67;;;;;;;16.57;78.99;100418.76;1634493;87;21103;-65
2023/08/09 03:35:19;;;;;;;14.07;3.60;;;;;;;16.57;79.02;100415.98;1634403;88;21086;-64
2023/08/09 03:37:48;;;;;;;5.75;3.00;;;;;;;16.54;79.11;100425.61;1634439;88;21093;-65
2023/08/09 03:40:17;;;;;;;5.40;3.30;;;;;;;16.56;79.35;100434.52;1634631;88;21054;-64
2023/08/09 03:42:46;;;;;;;4.53;3.02;;;;;;;16.61;79.27;100437.41;1634401;88;21466;-64
2023/08/09 03:45:17;;;;;;;4.85;2.98;;;;;;;16.67;79.18;100443.41;1634244;88;21070;-66
2023/08/09 03:47:46;;;;;;;5.35;3.40;;;;;;;16.70;79.06;100440.17;1612500;88;21123;-64
2023/08/09 03:50:15;;;;;;;4.12;3.10;;;;;;;16.75;79.03;100445.00;1634601;88;21042;-64
2023/08/09 03:52:45;;;;;;;5.60;3.22;;;;;;;16.79;78.92;100437.36;1634720;88;21071;-64
2023/08/09 03:55:15;;;;;;;7.00;3.47;;;;;;;16.86;78.79;100445.56;1634309;88;21192;-65
2023/08/09 03:57:45;;;;;;;6.87;3.92;;;;;;;16.94;78.33;100452.70;1634568;87;21062;-65
2023/08/09 04:00:22;;;;;;;6.50;3.40;;;;;;;17.00;77.77;100450.37;1634406;87;21178;-65
2023/08/09 04:02:51;;;;;;;5.42;3.60;;;;;;;17.05;77.23;100459.64;1634341;87;21066;-64
2023/08/09 04:05:20;;;;;;;6.58;3.40;;;;;;;17.10;76.78;100455.61;1620093;88;21541;-65
2023/08/09 04:07:49;;;;;;;12.90;10.53;;;;;;;17.15;76.03;100456.28;1609186;88;21118;-65
2023/08/09 04:10:19;;;;;;;5.83;4.30;;;;;;;17.20;75.62;100455.02;1609400;88;21059;-64
2023/08/09 04:12:49;;;;;;;6.62;3.60;;;;;;;17.26;75.13;100454.06;1609427;89;21098;-65
2023/08/09 04:15:18;;;;;;;14.20;6.28;;;;;;;17.31;74.75;100450.56;1609261;88;21078;-65
2023/08/09 04:17:49;;;;;;;5.65;3.67;;;;;;;17.35;74.34;100454.00;1609223;89;21707;-66
2023/08/09 04:20:19;;;;;;;7.00;3.55;;;;;;;17.41;73.91;100460.50;1609320;88;21099;-65
2023/08/09 04:22:48;;;;;;;5.62;2.98;;;;;;;17.44;73.66;100465.56;1609473;88;21561;-66
2023/08/09 04:25:17;;;;;;;5.37;3.05;;;;;;;17.48;73.17;100465.92;1609234;89;21058;-64
2023/08/09 04:27:48;;;;;;;4.17;3.15;;;;;;;17.52;72.74;100462.97;1609504;88;21058;-64
2023/08/09 04:30:17;;;;;;;8.98;4.42;;;;;;;17.54;72.43;100469.11;1609422;88;21968;-65
2023/08/09 04:32:47;;;;;;;8.05;2.92;;;;;;;17.59;72.28;100471.48;1609256;88;21102;-65
2023/08/09 04:35:18;;;;;;;5.35;2.80;;;;;;;17.61;71.70;100467.09;1609417;88;21063;-65
2023/08/09 04:37:47;;;;;;;5.40;3.10;;;;;;;17.65;71.57;100469.67;1609217;88;21082;-65
2023/08/09 04:40:16;;;;;;;6.05;3.30;;;;;;;17.70;71.25;100475.36;1609644;89;21058;-70
2023/08/09 04:42:49;;;;;;;6.12;3.17;;;;;;;17.76;71.13;100481.32;1609356;88;21063;-65
2023/08/09 04:45:19;;;;;;;7.35;2.95;;;;;;;17.79;70.68;100482.22;1609435;89;21102;-64
2023/08/09 04:47:52;;;;;;;7.67;3.95;;;;;;;17.83;70.40;100475.10;1609457;88;21094;-66
2023/08/09 04:50:21;;;;;;;3.92;2.62;;;;;;;17.88;70.20;100484.91;1609328;88;21541;-64
2023/08/09 04:52:51;;;;;;;5.75;3.10;;;;;;;17.94;69.87;100485.33;1609395;89;21070;-65
2023/08/09 04:55:20;;;;;;;5.58;3.10;;;;;;;18.00;69.37;100484.89;1609392;89;21086;-65
2023/08/09 04:57:50;;;;;;;4.45;2.98;;;;;;;18.04;69.03;100489.70;1609270;89;21087;-65
2023/08/09 05:00:19;;;;;;;5.33;3.00;;;;;;;18.09;68.47;100494.52;1609220;89;21471;-66
2023/08/09 05:02:48;;;;;;;5.78;3.30;;;;;;;18.14;68.06;100482.69;1609232;89;21082;-65
2023/08/09 05:05:16;;;;;;;6.65;2.77;;;;;;;18.21;67.65;100485.65;1609183;88;21511;-64
2023/08/09 05:07:45;;;;;;;4.20;3.22;;;;;;;18.28;67.07;100492.44;1609239;88;21070;-65
2023/08/09 05:10:14;;;;;;;6.35;3.12;;;;;;;18.33;66.66;100493.39;1609271;89;21067;-66
2023/08/09 05:12:43;;;;;;;7.30;3.35;;;;;;;18.39;66.42;100484.63;1609212;88;21119;-66
2023/08/09 05:15:12;;;;;;;5.58;2.90;;;;;;;18.48;65.91;100487.30;1609141;89;21095;-65
2023/08/09 05:17:42;;;;;;;7.10;3.17;;;;;;;18.57;65.14;100486.36;1609200;89;21528;-66
2023/08/09 05:20:11;;;;;;;6.92;2.83;;;;;;;18.64;64.68;100489.86;1609259;88;21138;-64
2023/08/09 05:22:40;;;;;;;7.78;2.55;;;;;;;18.68;64.08;100482.72;1609384;88;21051;-65
2023/08/09 05:25:09;;;;;;;5.33;2.50;;;;;;;18.75;63.84;100484.78;1609339;89;21079;-65
2023/08/09 05:27:38;;;;;;;6.55;2.50;;;;;;;18.84;63.22;100490.78;1609638;88;21405;-65
2023/08/09 05:30:08;;;;;;;6.08;2.50;;;;;;;18.95;62.57;100491.28;1609533;88;21510;-65
2023/08/09 05:32:38;;;;;;;8.33;2.77;;;;;;;19.08;61.90;100490.95;1609348;89;21459;-65
2023/08/09 05:35:09;;;;;;;4.42;2.50;;;;;;;19.25;61.07;100490.96;1609134;88;21075;-70
2023/08/09 05:37:38;;;;;;;4.62;2.70;;;;;;;19.38;60.08;100491.17;1609404;89;21091;-65
2023/08/09 05:40:09;;;;;;;6.55;3.02;;;;;;;19.44;59.93;100492.39;1609339;89;21106;-64
2023/08/09 05:42:41;;;;;;;5.85;2.77;;;;;;;19.49;59.55;100491.63;1609335;88;21051;-64
2023/08/09 05:45:10;;;;;;;4.65;2.87;;;;;;;19.53;57.97;100492.86;1609006;89;21100;-65
2023/08/09 05:47:39;;;;;;;4.95;2.60;;;;;;;19.56;58.32;100495.13;1609193;88;21099;-64
2023/08/09 05:50:10;;;;;;;3.12;2.25;;;;;;;19.58;57.86;100505.45;1609258;88;21086;-65
2023/08/09 05:52:41;;;;;;;5.17;2.65;;;;;;;19.57;57.26;100506.55;1609345;88;21459;-64
2023/08/09 05:55:10;;;;;;;8.60;2.90;;;;;;;19.56;57.02;100512.66;1609159;88;21495;-66
2023/08/09 05:57:39;;;;;;;6.58;2.55;;;;;;;19.57;56.73;100521.83;1609179;88;21610;-65
2023/08/09 06:00:15;;;;;;;5.05;2.50;;;;;;;19.56;56.12;100518.76;1609299;88;21519;-66
2023/08/09 06:02:46;;;;;;;5.25;2.50;;;;;;;19.57;55.70;100517.11;1609334;88;21147;-65
2023/08/09 06:05:23;;;;;;;7.58;2.50;;;;;;;19.62;55.33;100517.73;1615885;88;21129;-64
2023/08/09 06:07:53;;;;;;;3.33;2.10;;;;;;;19.68;55.29;100520.89;1634491;88;21976;-67
2023/08/09 06:10:24;;;;;;;4.72;2.22;;;;;;;19.73;55.09;100518.19;1634277;88;21062;-66
2023/08/09 06:12:55;;;;;;;4.70;2.37;;;;;;;19.76;54.48;100511.27;1634397;88;21155;-65
2023/08/09 06:15:26;;;;;;;5.12;2.22;;;;;;;19.78;54.57;100509.08;1634358;87;21054;-66
2023/08/09 06:17:55;;;;;;;6.35;2.12;;;;;;;19.81;54.31;100507.17;1634258;88;21489;-65
2023/08/09 06:20:27;;;;;;;4.45;2.37;;;;;;;19.82;54.27;100515.27;1634548;88;21066;-66
2023/08/09 06:22:58;;;;;;;7.65;2.62;;;;;;;19.82;54.61;100512.48;1634265;88;21039;-65
2023/08/09 06:25:27;;;;;;;4.78;2.50;;;;;;;19.86;54.83;100514.20;1634365;88;21062;-66
2023/08/09 06:27:57;;;;;;;6.42;2.80;;;;;;;19.88;54.09;100518.41;1634406;87;21111;-67
2023/08/09 06:30:29;;;;;;;3.77;2.10;;;;;;;19.89;53.62;100522.88;1634423;87;21944;-65
2023/08/09 06:32:58;;;;;;;5.55;2.30;;;;;;;20.00;53.79;100526.64;1634416;88;21516;-65
2023/08/09 06:35:27;;;;;;;4.42;2.20;;;;;;;20.29;53.46;100524.55;1634379;88;21478;-65
2023/08/09 06:37:56;;;;;;;3.70;2.02;;;;;;;20.68;52.20;100515.59;1634356;87;21193;-66
2023/08/09 06:40:28;;;;;;;5.08;2.15;;;;;;;21.16;50.65;100520.28;1634427;87;21027;-65
2023/08/09 06:42:57;;;;;;;6.42;2.25;;;;;;;21.68;49.84;100522.44;1634384;87;21070;-66
2023/08/09 06:45:26;;;;;;;4.40;2.02;;;;;;;22.18;48.16;100512.75;1634479;88;21099;-65
2023/08/09 06:47:56;;;;;;;4.78;2.12;;;;;;;22.66;45.66;100520.47;1634294;88;21162;-64
2023/08/09 06:50:27;;;;;;;5.55;2.37;;;;;;;22.99;44.96;100518.64;1612724;88;21545;-68
2023/08/09 06:52:55;;;;;;;3.30;2.08;;;;;;;23.37;44.41;100525.66;1633670;88;21166;-66
2023/08/09 06:55:25;;;;;;;2.62;1.50;;;;;;;23.76;43.63;100516.74;1634384;88;21544;-65
2023/08/09 06:57:55;;;;;;;4.17;2.00;;;;;;;24.13;41.87;100517.80;1634611;87;21087;-64
2023/08/09 07:00:23;;;;;;;3.05;1.92;;;;;;;24.50;41.27;100509.56;1634509;87;21062;-65
2023/08/09 07:02:52;;;;;;;4.45;1.90;;;;;;;24.89;40.34;100516.66;1634325;87;21175;-65
2023/08/09 07:05:22;;;;;;;5.30;2.20;;;;;;;25.19;39.23;100515.08;1634344;88;21159;-66
2023/08/09 07:07:51;;;;;;;5.87;2.00;;;;;;;25.41;39.00;100520.27;1634331;88;21593;-66
2023/08/09 07:10:21;;;;;;;2.87;1.87;;;;;;;25.63;38.27;100520.35;1634427;88;21082;-65
2023/08/09 07:12:49;;;;;;;3.65;1.80;;;;;;;25.82;37.74;100518.51;1634485;88;21082;-66
2023/08/09 07:15:18;;;;;;;6.00;1.82;;;;;;;25.97;36.91;100515.54;1634505;87;21114;-65
2023/08/09 07:17:47;;;;;;;4.53;2.05;;;;;;;26.08;36.25;100514.33;1634337;87;21506;-67
2023/08/09 07:20:16;;;;;;;2.85;1.67;;;;;;;26.13;35.83;100514.27;1634524;87;21078;-64
2023/08/09 07:22:47;;;;;;;5.55;2.20;;;;;;;26.27;35.79;100514.38;1634674;87;21054;-65
2023/08/09 07:25:16;;;;;;;3.25;1.70;;;;;;;26.41;34.84;100513.12;1612852;88;21106;-65
2023/08/09 07:27:49;;;;;;;3.45;1.70;;;;;;;26.58;33.76;100513.45;1634456;87;21563;-65
2023/08/09 07:30:18;;;;;;;6.22;1.82;;;;;;;26.58;33.76;100513.45;1634487;88;21077;-66
2023/08/09 07:32:48;;;;;;;3.75;2.22;;;;;;;26.64;33.80;100519.27;1634462;87;21038;-64
2023/08/09 07:35:19;;;;;;;19.50;3.37;;;;;;;26.71;34.17;100520.34;1634546;87;21486;-62
2023/08/09 07:37:48;;;;;;;17.82;2.70;;;;;;;26.87;32.69;100520.95;1634478;88;21064;-65
2023/08/09 07:40:18;;;;;;;6.17;2.10;;;;;;;26.87;32.69;100520.95;1634568;88;21078;-65
2023/08/09 07:42:47;;;;;;;2.98;1.72;;;;;;;26.83;33.33;100523.54;1612476;88;21106;-64
2023/08/09 07:45:16;;;;;;;5.55;2.30;;;;;;;26.90;33.31;100520.34;1634665;87;21110;-63
2023/08/09 07:47:46;;;;;;;3.95;2.02;;;;;;;27.01;33.49;100530.34;1634492;88;21078;-64
2023/08/09 07:50:21;;;;;;;4.47;2.00;;;;;;;27.18;32.66;100533.45;1631734;87;21500;-66
2023/08/09 07:52:51;;;;;;;7.08;4.78;;;;;;;27.28;32.54;100528.23;1628668;86;21044;-66
2023/08/09 07:55:25;;;;;;;5.08;2.45;;;;;;;27.40;32.58;100525.23;1631657;88;21519;-67
2023/08/09 07:57:54;;;;;;;7.62;2.20;;;;;;;27.61;33.11;100520.70;1637957;87;21083;-66
2023/08/09 08:00:25;;;;;;;3.42;2.10;;;;;;;27.86;32.40;100524.46;1639102;86;21488;-65
2023/08/09 08:02:58;;;;;;;5.55;3.58;;;;;;;27.93;32.00;100523.48;1635369;87;21470;-65
2023/08/09 08:05:31;;;;;;;4.15;2.05;;;;;;;27.99;31.43;100519.45;1637036;87;21574;-65
2023/08/09 08:08:06;;;;;;;5.53;1.95;;;;;;;27.91;31.81;100520.71;1661108;84;21089;-64
2023/08/09 08:10:36;;;;;;;5.90;2.30;;;;;;;27.96;31.46;100520.61;1662722;86;21478;-64
2023/08/09 08:13:06;;;;;;;23.50;3.22;;;;;;;27.95;31.25;100517.54;1662781;86;21580;-63
2023/08/09 08:15:39;;;;;;;3.67;2.20;;;;;;;27.96;31.57;100518.67;1662751;86;21063;-65
2023/08/09 08:18:09;;;;;;;3.87;2.10;;;;;;;27.85;31.48;100517.73;1639050;86;21097;-65
2023/08/09 08:20:38;;;;;;;4.00;2.12;;;;;;;27.66;31.81;100524.26;1663076;86;21073;-65
2023/08/09 08:23:07;;;;;;;6.08;2.30;;;;;;;27.45;31.97;100518.12;1662832;86;21089;-64
2023/08/09 08:25:38;;;;;;;18.20;2.22;;;;;;;27.49;31.88;100526.78;1659647;86;21022;-69
2023/08/09 08:28:06;;;;;;;5.25;2.22;;;;;;;27.54;32.17;100526.69;1658406;86;21087;-65
2023/08/09 08:30:38;;;;;;;4.85;2.08;;;;;;;27.72;32.22;100520.78;1658453;86;21037;-66
2023/08/09 08:33:08;;;;;;;4.00;2.00;;;;;;;27.88;31.37;100519.92;1632204;86;21109;-65
2023/08/09 08:35:43;;;;;;;4.50;2.47;;;;;;;27.79;31.08;100529.09;1658579;85;21042;-64
2023/08/09 08:38:07;;;;;;;2.92;2.00;;;;;;;27.63;31.20;100529.67;1657864;86;21042;-64
2023/08/09 08:40:38;;;;;;;4.33;2.02;;;;;;;27.63;30.86;100525.45;1658431;86;21093;-65
2023/08/09 08:43:08;;;;;;;5.25;1.80;;;;;;;27.71;30.82;100524.74;1658485;85;21631;-65
2023/08/09 08:45:38;;;;;;;3.60;1.82;;;;;;;27.81;30.58;100523.14;1658473;86;21682;-70
2023/08/09 08:48:08;;;;;;;5.22;2.83;;;;;;;27.78;30.89;100526.58;1658442;85;21065;-64
2023/08/09 08:50:39;;;;;;;4.03;1.90;;;;;;;27.70;30.47;100527.30;1658505;86;21119;-63
2023/08/09 08:53:08;;;;;;;6.03;2.17;;;;;;;27.50;30.20;100523.39;1658405;86;21054;-64
2023/08/09 08:55:37;;;;;;;3.25;1.92;;;;;;;27.21;30.55;100527.78;1632270;86;21552;-68
2023/08/09 08:58:06;;;;;;;4.17;2.27;;;;;;;26.98;30.98;100530.95;1659219;85;21109;-64
2023/08/09 09:00:38;;;;;;;5.17;2.22;;;;;;;26.92;31.13;100527.91;1682636;85;21091;-66
2023/08/09 09:03:07;;;;;;;4.20;2.00;;;;;;;26.96;31.63;100526.16;1682802;85;21084;-66
2023/08/09 09:05:36;;;;;;;5.60;2.60;;;;;;;27.18;31.72;100529.23;1682674;85;21032;-65
2023/08/09 09:08:08;;;;;;;3.90;2.27;;;;;;;27.33;31.27;100526.77;1650568;86;21233;-65
2023/08/09 09:10:38;;;;;;;3.22;1.92;;;;;;;27.40;31.24;100530.03;1650543;87;21117;-64
2023/08/09 09:13:07;;;;;;;4.05;2.25;;;;;;;27.36;30.94;100528.98;1650482;87;21098;-64
2023/08/09 09:15:39;;;;;;;3.20;1.90;;;;;;;27.25;31.00;100540.94;1650614;86;21058;-65
2023/08/09 09:18:09;;;;;;;7.83;3.17;;;;;;;27.10;30.58;100534.14;1648372;86;21059;-64
2023/08/09 09:20:38;;;;;;;8.60;2.47;;;;;;;26.54;31.47;100534.87;1650602;87;21742;-64
2023/08/09 09:23:09;;;;;;;2.70;1.52;;;;;;;26.54;31.47;100534.87;1626735;86;21141;-65
2023/08/09 09:25:40;;;;;;;2.58;1.70;;;;;;;26.27;31.72;100537.42;1650610;86;21054;-66
2023/08/09 09:28:09;;;;;;;5.25;2.47;;;;;;;26.06;32.24;100539.06;1650389;87;21054;-66
2023/08/09 09:30:38;;;;;;;6.83;2.47;;;;;;;25.81;32.80;100533.68;1626806;87;21059;-64
2023/08/09 09:33:08;;;;;;;3.17;1.67;;;;;;;25.73;33.11;100532.92;1650385;87;21545;-64
2023/08/09 09:35:37;;;;;;;3.60;1.80;;;;;;;25.74;32.47;100532.63;1650659;86;21165;-66
2023/08/09 09:38:08;;;;;;;3.08;1.87;;;;;;;25.60;32.80;100531.03;1648555;86;21122;-64
2023/08/09 09:40:37;;;;;;;5.50;1.67;;;;;;;25.45;32.75;100532.57;1648348;87;21078;-64
2023/08/09 09:43:06;;;;;;;5.15;2.50;;;;;;;25.30;32.72;100531.27;1650444;87;21564;-64
2023/08/09 09:45:36;;;;;;;3.20;1.60;;;;;;;25.24;32.98;100528.23;1650616;86;21074;-64
2023/08/09 09:48:09;;;;;;;2.55;1.80;;;;;;;25.28;32.98;100522.30;1650665;87;21098;-63
2023/08/09 09:50:39;;;;;;;3.05;1.42;;;;;;;25.30;32.76;100518.64;1648209;86;21054;-64
2023/08/09 09:53:13;;;;;;;2.10;1.50;;;;;;;25.29;32.93;100515.56;1650429;87;21063;-65
2023/08/09 09:55:43;;;;;;;4.33;2.10;;;;;;;25.28;32.39;100518.94;1650623;87;21142;-64
2023/08/09 09:58:16;;;;;;;4.12;1.67;;;;;;;25.29;32.42;100522.01;1649302;86;21275;-67
2023/08/09 10:00:49;;;;;;;6.50;2.12;;;;;;;25.29;32.56;100524.81;1636446;87;21466;-63
2023/08/09 10:03:22;;;;;;;2.70;1.60;;;;;;;25.24;32.65;100519.81;1636580;88;21519;-64
2023/08/09 10:05:51;;;;;;;4.47;1.90;;;;;;;25.25;32.59;100516.71;1636128;88;21649;-63
2023/08/09 10:08:20;;;;;;;3.42;1.82;;;;;;;25.33;32.91;100528.44;1662555;86;21064;-64
2023/08/09 10:10:50;;;;;;;3.92;1.92;;;;;;;25.39;32.51;100525.33;1663368;86;21619;-64
2023/08/09 10:13:22;;;;;;;1.42;1.15;;;;;;;25.34;32.01;100517.48;1663512;86;21508;-65
2023/08/09 10:15:58;;;;;;;2.45;1.45;;;;;;;25.24;32.36;100517.84;1663379;86;21075;-65
2023/08/09 10:18:46;;;;;;;1.87;1.30;;;;;;;25.13;32.21;100515.41;1663757;86;21519;-65
2023/08/09 10:21:17;;;;;;;2.87;1.75;;;;;;;25.08;31.91;100511.24;1656077;85;21060;-66
2023/08/09 10:23:57;;;;;;;5.03;2.20;;;;;;;25.01;32.34;100512.97;1663304;86;21091;-65
2023/08/09 10:26:29;;;;;;;4.50;1.90;;;;;;;25.05;32.52;100511.82;1662953;86;21068;-65
2023/08/09 10:29:12;;;;;;;3.08;1.55;;;;;;;25.11;32.55;100517.67;1663525;86;21052;-65
2023/08/09 10:31:59;;;;;;;7.12;1.70;;;;;;;25.10;32.24;100509.81;1663286;86;21099;-65
2023/08/09 10:34:40;;;;;;;2.17;1.57;;;;;;;25.06;32.44;100505.92;1663462;86;21554;-64
2023/08/09 10:37:11;;;;;;;4.00;2.00;;;;;;;25.14;32.49;100503.06;1663526;86;21480;-65
2023/08/09 10:39:42;;;;;;;4.28;1.75;;;;;;;25.17;32.20;100511.73;1663492;86;21083;-65
2023/08/09 10:42:11;;;;;;;3.70;1.70;;;;;;;25.22;32.42;100501.03;1663331;86;21091;-66
2023/08/09 10:44:48;;;;;;;2.90;1.50;;;;;;;25.33;32.07;100503.19;1663474;86;21112;-65
2023/08/09 10:47:30;;;;;;;3.00;1.60;;;;;;;25.31;31.89;100499.28;1663567;86;21187;-67
2023/08/09 10:50:01;;;;;;;3.02;1.50;;;;;;;25.32;32.16;100496.74;1663299;86;21067;-68
2023/08/09 10:52:41;;;;;;;3.40;1.50;;;;;;;25.33;32.40;100501.22;1663338;86;21577;-66
2023/08/09 10:55:26;;;;;;;5.37;1.87;;;;;;;25.32;32.56;100498.15;1663707;86;21055;-66
2023/08/09 10:57:57;;;;;;;3.50;1.52;;;;;;;25.35;32.52;100508.78;1663430;86;21479;-67
2023/08/09 11:00:28;;;;;;;2.52;1.70;;;;;;;25.31;32.80;100502.64;1641642;86;21074;-67
2023/08/09 11:02:58;;;;;;;8.68;2.37;;;;;;;25.33;33.00;100499.82;1661349;86;21074;-67
2023/08/09 11:05:29;;;;;;;4.87;2.17;;;;;;;25.40;32.91;100500.35;1641768;87;21054;-66
2023/08/09 11:08:00;;;;;;;3.42;1.70;;;;;;;25.46;32.78;100496.37;1632427;87;21101;-67
2023/08/09 11:10:35;;;;;;;4.72;1.80;;;;;;;25.49;32.87;100499.98;1628397;88;21483;-66
2023/08/09 11:13:12;;;;;;;5.12;1.52;;;;;;;25.52;32.65;100500.80;1628439;88;21077;-66
2023/08/09 11:15:47;;;;;;;2.75;1.72;;;;;;;25.53;31.92;100502.48;1628590;88;21078;-68
2023/08/09 11:18:16;;;;;;;6.67;2.50;;;;;;;25.47;32.23;100502.82;1628554;88;21528;-66
2023/08/09 11:20:47;;;;;;;4.17;1.82;;;;;;;25.41;32.50;100502.02;1628462;88;21057;-67
2023/08/09 11:23:18;;;;;;;4.05;1.60;;;;;;;25.37;32.87;100500.94;1628602;88;21058;-67
2023/08/09 11:25:47;;;;;;;6.20;2.30;;;;;;;25.35;33.08;100504.58;1628243;88;21066;-68
2023/08/09 11:28:18;;;;;;;3.55;1.75;;;;;;;25.26;33.13;100505.77;1628771;88;21189;-66
2023/08/09 11:30:51;;;;;;;4.30;1.75;;;;;;;25.20;33.61;100505.53;1628337;88;21491;-67
2023/08/09 11:33:21;;;;;;;4.45;2.00;;;;;;;25.18;33.50;100497.14;1628645;88;21035;-64
2023/08/09 11:35:52;;;;;;;5.37;1.98;;;;;;;25.17;34.04;100502.48;1628615;88;21089;-67
2023/08/09 11:38:21;;;;;;;3.27;2.00;;;;;;;25.16;33.99;100497.44;1628353;88;21063;-67
2023/08/09 11:40:51;;;;;;;3.60;2.00;;;;;;;25.13;33.89;100499.42;1628710;88;21090;-67